createdAt,value
2022-12-01T00:01:10.209Z,15.85
2022-12-01T00:03:37.416Z,15.82
2022-12-01T00:06:11.327Z,16.33
2022-12-01T00:08:38.623Z,14.85
2022-12-01T00:11:10.350Z,15.80
2022-12-01T00:13:37.778Z,15.02
2022-12-01T00:16:30.733Z,15.82
2022-12-01T00:18:57.507Z,15.13
2022-12-01T00:21:25.701Z,16.25
2022-12-01T00:23:55.160Z,15.27
2022-12-01T00:26:22.978Z,15.38
2022-12-01T00:28:54.094Z,15.02
2022-12-01T00:31:21.463Z,15.73
2022-12-01T00:33:49.492Z,15.05
2022-12-01T00:36:16.174Z,15.02
2022-12-01T00:38:43.023Z,14.98
2022-12-01T00:41:09.785Z,14.27
2022-12-01T00:43:36.469Z,14.55
2022-12-01T00:46:03.717Z,13.52
2022-12-01T00:48:30.956Z,14.15
2022-12-01T00:50:57.674Z,14.23
2022-12-01T00:53:24.711Z,15.07
2022-12-01T00:55:53.962Z,14.57
2022-12-01T00:58:21.311Z,14.93
2022-12-01T01:00:47.970Z,14.43
2022-12-01T01:03:14.674Z,14.35
2022-12-01T01:05:42.972Z,14.50
2022-12-01T01:08:11.415Z,14.65
2022-12-01T01:10:42.524Z,14.73
2022-12-01T01:13:09.666Z,15.27
2022-12-01T01:15:36.964Z,14.45
2022-12-01T01:18:05.435Z,15.65
2022-12-01T01:20:32.317Z,15.43
2022-12-01T01:22:59.164Z,14.88
2022-12-01T01:25:25.786Z,9.88
2022-12-01T01:27:52.492Z,14.68
2022-12-01T01:30:19.692Z,14.73
2022-12-01T01:32:46.270Z,15.40
2022-12-01T01:35:12.902Z,14.73
2022-12-01T01:37:39.841Z,13.20
2022-12-01T01:40:07.245Z,14.38
2022-12-01T01:42:33.901Z,14.80
2022-12-01T01:45:00.634Z,15.05
2022-12-01T01:47:35.987Z,14.40
2022-12-01T01:50:09.866Z,14.32
2022-12-01T01:52:40.013Z,14.93
2022-12-01T01:55:08.069Z,14.75
2022-12-01T01:57:35.321Z,15.63
2022-12-01T02:00:08.007Z,23.35
2022-12-01T02:02:44.155Z,43.53
2022-12-01T02:05:21.280Z,34.20
2022-12-01T02:07:49.110Z,31.00
2022-12-01T02:12:55.155Z,19.88
2022-12-01T02:15:48.929Z,16.52
2022-12-01T02:18:52.230Z,15.85
2022-12-01T02:21:21.893Z,15.88
2022-12-01T02:24:10.080Z,14.00
2022-12-01T02:26:50.578Z,14.43
2022-12-01T02:29:38.299Z,15.50
2022-12-01T02:32:13.455Z,13.18
2022-12-01T02:34:59.007Z,14.50
2022-12-01T02:37:40.359Z,14.77
2022-12-01T02:40:32.994Z,15.68
2022-12-01T02:43:03.760Z,15.35
2022-12-01T02:45:45.816Z,14.02
2022-12-01T02:48:19.411Z,14.35
2022-12-01T02:50:46.686Z,15.15
2022-12-01T02:53:17.328Z,16.02
2022-12-01T02:55:55.271Z,13.05
2022-12-01T02:58:22.631Z,15.55
2022-12-01T03:01:02.509Z,15.85
2022-12-01T03:03:45.112Z,15.73
2022-12-01T03:06:24.195Z,15.75
2022-12-01T03:09:09.486Z,14.15
2022-12-01T03:11:47.989Z,14.43
2022-12-01T03:14:38.726Z,14.93
2022-12-01T03:17:11.052Z,15.18
2022-12-01T03:19:48.488Z,15.10
2022-12-01T03:22:54.171Z,15.50
2022-12-01T03:25:24.496Z,16.45
2022-12-01T03:28:20.178Z,29.65
2022-12-01T03:30:46.456Z,21.30
2022-12-01T03:33:22.423Z,30.48
2022-12-01T03:35:55.856Z,27.67
2022-12-01T03:38:26.014Z,27.70
2022-12-01T03:40:58.235Z,24.13
2022-12-01T03:43:31.466Z,14.98
2022-12-01T03:46:17.789Z,16.85
2022-12-01T03:48:44.520Z,18.10
2022-12-01T03:51:18.147Z,16.85
2022-12-01T03:53:51.723Z,24.30
2022-12-01T03:56:22.306Z,50.22
2022-12-01T03:58:52.668Z,44.47
2022-12-01T04:01:20.785Z,31.45
2022-12-01T04:03:47.622Z,32.83
2022-12-01T04:06:15.183Z,38.78
2022-12-01T04:08:41.785Z,16.20
2022-12-01T04:11:32.254Z,18.95
2022-12-01T04:13:59.548Z,14.60
2022-12-01T04:16:26.251Z,15.63
2022-12-01T04:18:52.916Z,15.90
2022-12-01T04:21:19.492Z,14.10
2022-12-01T04:24:01.314Z,14.55
2022-12-01T04:26:34.156Z,13.93
2022-12-01T04:29:02.175Z,14.18
2022-12-01T04:33:56.049Z,13.80
2022-12-01T04:36:24.345Z,14.82
2022-12-01T04:38:51.366Z,14.70
2022-12-01T04:41:18.173Z,15.07
2022-12-01T04:43:45.045Z,15.80
2022-12-01T04:46:12.053Z,14.88
2022-12-01T04:48:39.799Z,15.47
2022-12-01T04:51:08.319Z,14.95
2022-12-01T04:53:36.350Z,15.05
2022-12-01T04:58:32.121Z,15.43
2022-12-01T05:01:07.586Z,15.55
2022-12-01T05:03:43.578Z,14.73
2022-12-01T05:06:13.659Z,17.40
2022-12-01T05:08:40.942Z,16.73
2022-12-01T05:11:08.533Z,15.75
2022-12-01T05:13:37.668Z,14.90
2022-12-01T05:16:09.316Z,15.75
2022-12-01T05:18:36.463Z,15.63
2022-12-01T05:21:04.907Z,16.17
2022-12-01T05:23:33.851Z,16.23
2022-12-01T05:26:01.883Z,15.30
2022-12-01T05:28:29.254Z,15.10
2022-12-01T05:30:56.602Z,15.90
2022-12-01T05:33:24.767Z,15.77
2022-12-01T05:35:52.072Z,15.38
2022-12-01T05:38:19.263Z,16.17
2022-12-01T05:40:53.786Z,15.33
2022-12-01T05:43:28.284Z,15.63
2022-12-01T05:45:56.139Z,14.95
2022-12-01T05:48:22.851Z,16.50
2022-12-01T05:50:49.449Z,16.20
2022-12-01T05:53:16.059Z,16.73
2022-12-01T05:55:42.847Z,15.57
2022-12-01T05:58:10.118Z,15.35
2022-12-01T06:00:42.279Z,15.32
2022-12-01T06:03:12.181Z,14.65
2022-12-01T06:05:38.796Z,15.32
2022-12-01T06:08:05.580Z,14.30
2022-12-01T06:10:32.202Z,16.08
2022-12-01T06:12:58.808Z,14.75
2022-12-01T06:15:25.909Z,14.80
2022-12-01T06:17:52.611Z,15.30
2022-12-01T06:20:19.355Z,14.45
2022-12-01T06:22:45.935Z,15.82
2022-12-01T06:25:12.584Z,15.90
2022-12-01T06:27:39.649Z,15.27
2022-12-01T06:30:06.973Z,15.20
2022-12-01T06:32:33.804Z,14.88
2022-12-01T06:35:00.480Z,15.25
2022-12-01T06:37:28.096Z,15.23
2022-12-01T06:39:54.719Z,15.95
2022-12-01T06:42:21.447Z,14.88
2022-12-01T06:44:48.116Z,15.90
2022-12-01T06:47:15.869Z,14.80
2022-12-01T06:49:42.653Z,14.68
2022-12-01T06:52:10.097Z,15.85
2022-12-01T06:54:37.658Z,15.40
2022-12-01T06:57:05.012Z,14.90
2022-12-01T06:59:32.005Z,14.85
2022-12-01T07:01:59.159Z,14.70
2022-12-01T07:04:26.055Z,15.35
2022-12-01T07:06:52.795Z,14.70
2022-12-01T07:09:19.384Z,14.57
2022-12-01T07:11:46.064Z,14.35
2022-12-01T07:14:23.926Z,14.73
2022-12-01T07:16:51.164Z,14.82
2022-12-01T07:19:18.283Z,14.13
2022-12-01T07:21:45.092Z,14.50
2022-12-01T07:24:14.842Z,15.00
2022-12-01T07:26:42.557Z,32.00
2022-12-01T07:29:10.748Z,15.80
2022-12-01T07:31:38.304Z,17.20
2022-12-01T07:34:05.872Z,15.23
2022-12-01T07:36:32.676Z,15.93
2022-12-01T07:39:00.196Z,16.15
2022-12-01T07:41:26.803Z,15.70
2022-12-01T07:43:55.356Z,15.43
2022-12-01T07:46:24.865Z,16.45
2022-12-01T07:48:52.950Z,16.05
2022-12-01T07:51:20.771Z,16.15
2022-12-01T07:53:49.353Z,16.20
2022-12-01T07:56:16.591Z,16.25
2022-12-01T07:58:43.592Z,16.65
2022-12-01T08:01:12.952Z,16.37
2022-12-01T08:03:40.514Z,15.88
2022-12-01T08:06:08.390Z,16.25
2022-12-01T08:08:37.843Z,18.33
2022-12-01T08:11:26.768Z,17.13
2022-12-01T08:13:53.985Z,17.40
2022-12-01T08:16:22.720Z,16.20
2022-12-01T08:18:50.222Z,21.95
2022-12-01T08:21:19.529Z,18.08
2022-12-01T08:23:47.809Z,17.90
2022-12-01T08:26:17.152Z,18.55
2022-12-01T08:28:44.553Z,16.92
2022-12-01T08:31:24.635Z,17.30
2022-12-01T08:33:52.167Z,17.65
2022-12-01T08:36:20.596Z,17.02
2022-12-01T08:38:50.006Z,15.48
2022-12-01T08:41:17.103Z,17.48
2022-12-01T08:44:01.093Z,16.38
2022-12-01T08:46:32.287Z,17.00
2022-12-01T08:48:59.064Z,17.45
2022-12-01T08:51:26.599Z,20.27
2022-12-01T08:53:55.625Z,17.30
2022-12-01T08:56:25.919Z,16.63
2022-12-01T08:58:54.311Z,19.83
2022-12-01T09:01:21.914Z,20.50
2022-12-01T09:03:48.947Z,18.95
2022-12-01T09:06:17.678Z,16.03
2022-12-01T09:08:44.409Z,22.10
2022-12-01T09:11:14.298Z,19.63
2022-12-01T09:13:42.354Z,17.83
2022-12-01T09:18:38.908Z,18.17
2022-12-01T09:21:16.706Z,17.87
2022-12-01T09:26:13.787Z,18.98
2022-12-01T09:28:40.836Z,17.90
2022-12-01T09:31:09.864Z,18.23
2022-12-01T09:33:36.676Z,15.13
2022-12-01T09:36:05.792Z,15.85
2022-12-01T09:38:34.492Z,27.70
2022-12-01T09:41:07.136Z,18.20
2022-12-01T09:43:41.433Z,16.45
2022-12-01T09:46:16.023Z,16.45
2022-12-01T09:48:47.960Z,16.25
2022-12-01T09:51:22.689Z,16.67
2022-12-01T09:53:53.406Z,16.67
2022-12-01T09:56:32.304Z,15.85
2022-12-01T09:59:02.902Z,16.42
2022-12-01T10:01:42.980Z,15.68
2022-12-01T10:04:38.180Z,16.58
2022-12-01T10:07:37.299Z,16.88
2022-12-01T10:10:38.248Z,17.23
2022-12-01T10:13:26.550Z,18.38
2022-12-01T10:16:12.516Z,20.35
2022-12-01T10:19:01.736Z,15.77
2022-12-01T10:21:34.131Z,16.17
2022-12-01T10:24:06.373Z,15.77
2022-12-01T10:27:00.694Z,15.43
2022-12-01T10:29:47.329Z,15.40
2022-12-01T10:32:23.080Z,16.67
2022-12-01T10:34:49.748Z,15.07
2022-12-01T10:37:28.545Z,16.35
2022-12-01T10:39:57.190Z,15.90
2022-12-01T10:42:37.659Z,16.77
2022-12-01T10:45:07.676Z,17.35
2022-12-01T10:47:34.316Z,14.82
2022-12-01T10:50:05.318Z,16.42
2022-12-01T10:52:32.045Z,16.92
2022-12-01T10:54:59.590Z,16.58
2022-12-01T10:57:29.622Z,16.33
2022-12-01T11:00:01.068Z,16.15
2022-12-01T11:02:29.689Z,17.63
2022-12-01T11:05:02.802Z,16.48
2022-12-01T11:07:42.929Z,16.23
2022-12-01T11:10:12.380Z,16.38
2022-12-01T11:12:39.830Z,16.52
2022-12-01T11:15:07.861Z,15.50
2022-12-01T11:17:43.242Z,16.05
2022-12-01T11:20:37.507Z,18.05
2022-12-01T11:23:26.406Z,16.02
2022-12-01T11:26:23.676Z,17.13
2022-12-01T11:28:54.733Z,16.85
2022-12-01T11:31:25.256Z,16.15
2022-12-01T11:33:56.405Z,16.20
2022-12-01T11:36:31.694Z,15.85
2022-12-01T11:39:01.500Z,15.60
2022-12-01T11:41:40.788Z,15.77
2022-12-01T11:47:25.105Z,16.45
2022-12-01T11:49:58.087Z,15.82
2022-12-01T11:52:24.645Z,15.65
2022-12-01T11:55:18.813Z,14.77
2022-12-01T11:57:48.221Z,15.23
2022-12-01T12:00:17.098Z,16.02
2022-12-01T12:03:14.741Z,16.38
2022-12-01T12:05:45.565Z,15.75
2022-12-01T12:08:35.643Z,14.48
2022-12-01T12:11:26.238Z,15.43
2022-12-01T12:14:19.982Z,16.13
2022-12-01T12:17:15.109Z,15.93
2022-12-01T12:20:07.564Z,15.80
2022-12-01T12:22:55.763Z,17.08
2022-12-01T12:28:34.330Z,14.43
2022-12-01T12:31:25.509Z,13.05
2022-12-01T12:34:25.438Z,13.98
2022-12-01T12:37:05.929Z,16.50
2022-12-01T12:39:51.359Z,15.00
2022-12-01T12:42:21.029Z,15.77
2022-12-01T12:45:13.473Z,16.00
2022-12-01T12:47:45.761Z,14.43
2022-12-01T12:50:32.602Z,14.43
2022-12-01T12:53:10.168Z,14.75
2022-12-01T12:55:42.753Z,16.08
2022-12-01T12:58:25.986Z,14.90
2022-12-01T13:01:12.352Z,14.98
2022-12-01T13:04:04.454Z,14.02
2022-12-01T13:06:39.132Z,16.52
2022-12-01T13:09:14.963Z,14.93
2022-12-01T13:11:51.712Z,13.93
2022-12-01T13:14:42.476Z,13.65
2022-12-01T13:17:20.978Z,13.50
2022-12-01T13:19:48.572Z,12.60
2022-12-01T13:22:18.883Z,15.10
2022-12-01T13:24:45.548Z,14.27
2022-12-01T13:27:23.791Z,12.60
2022-12-01T13:29:53.570Z,14.57
2022-12-01T13:32:40.378Z,15.10
2022-12-01T13:35:20.809Z,13.25
2022-12-01T13:37:48.210Z,14.15
2022-12-01T13:40:29.187Z,15.48
2022-12-01T13:43:18.544Z,14.57
2022-12-01T13:45:46.057Z,13.80
2022-12-01T13:48:45.320Z,14.25
2022-12-01T13:51:12.042Z,15.77
2022-12-01T13:53:52.289Z,13.15
2022-12-01T13:56:18.861Z,13.73
2022-12-01T13:58:51.343Z,13.57
2022-12-01T14:01:21.492Z,13.00
2022-12-01T14:04:11.773Z,13.70
2022-12-01T14:06:49.223Z,13.75
2022-12-01T14:09:44.012Z,13.57
2022-12-01T14:12:31.512Z,13.00
2022-12-01T14:17:34.018Z,11.60
2022-12-01T14:20:17.621Z,14.10
2022-12-01T14:22:46.743Z,14.38
2022-12-01T14:25:22.734Z,15.23
2022-12-01T14:27:53.386Z,13.90
2022-12-01T14:30:41.963Z,14.27
2022-12-01T14:33:39.446Z,15.18
2022-12-01T14:39:06.203Z,14.75
2022-12-01T14:41:49.403Z,14.35
2022-12-01T14:44:34.679Z,15.55
2022-12-01T14:47:10.354Z,14.52
2022-12-01T14:49:42.897Z,15.35
2022-12-01T14:52:35.818Z,16.25
2022-12-01T14:55:13.593Z,16.15
2022-12-01T15:00:15.747Z,15.07
2022-12-01T15:02:54.161Z,16.98
2022-12-01T15:05:23.963Z,16.98
2022-12-01T15:07:58.843Z,17.45
2022-12-01T15:10:37.708Z,21.75
2022-12-01T15:13:39.273Z,18.83
2022-12-01T15:16:15.053Z,16.52
2022-12-01T15:18:42.131Z,16.58
2022-12-01T15:21:26.146Z,15.20
2022-12-01T15:24:06.362Z,15.98
2022-12-01T15:26:36.325Z,15.05
2022-12-01T15:29:12.013Z,14.75
2022-12-01T15:31:39.081Z,13.60
2022-12-01T15:34:06.366Z,15.52
2022-12-01T15:36:33.106Z,14.60
2022-12-01T15:39:06.744Z,14.68
2022-12-01T15:41:35.430Z,14.02
2022-12-01T15:44:03.660Z,14.88
2022-12-01T15:46:34.328Z,14.15
2022-12-01T15:49:40.426Z,16.85
2022-12-01T15:52:10.514Z,15.88
2022-12-01T15:54:38.613Z,15.98
2022-12-01T15:57:06.711Z,15.43
2022-12-01T15:59:36.558Z,18.00
2022-12-01T16:02:30.054Z,18.48
2022-12-01T16:05:25.996Z,16.48
2022-12-01T16:10:41.211Z,21.95
2022-12-01T16:13:38.682Z,18.02
2022-12-01T16:18:57.955Z,15.70
2022-12-01T16:21:26.273Z,15.45
2022-12-01T16:24:01.247Z,17.30
2022-12-01T16:26:29.083Z,16.65
2022-12-01T16:28:56.485Z,17.33
2022-12-01T16:31:26.130Z,16.38
2022-12-01T16:34:18.481Z,16.52
2022-12-01T16:36:50.569Z,15.73
2022-12-01T16:39:17.778Z,13.65
2022-12-01T16:41:44.971Z,16.65
2022-12-01T16:44:27.932Z,18.27
2022-12-01T16:46:55.818Z,17.67
2022-12-01T16:49:22.794Z,16.53
2022-12-01T16:51:56.036Z,15.30
2022-12-01T16:54:23.375Z,16.63
2022-12-01T16:56:50.005Z,17.45
2022-12-01T16:59:16.600Z,17.33
2022-12-01T17:01:43.335Z,19.55
2022-12-01T17:04:09.958Z,17.40
2022-12-01T17:06:38.374Z,19.83
2022-12-01T17:09:05.771Z,15.90
2022-12-01T17:11:32.603Z,16.33
2022-12-01T17:13:59.220Z,15.27
2022-12-01T17:16:25.940Z,18.85
2022-12-01T17:18:52.603Z,16.20
2022-12-01T17:21:19.376Z,18.73
2022-12-01T17:23:46.140Z,16.27
2022-12-01T17:26:15.859Z,15.45
2022-12-01T17:28:42.730Z,15.98
2022-12-01T17:31:09.800Z,16.55
2022-12-01T17:33:37.221Z,16.60
2022-12-01T17:36:07.748Z,19.25
2022-12-01T17:38:36.458Z,17.05
2022-12-01T17:41:10.299Z,17.40
2022-12-01T17:43:38.581Z,25.10
2022-12-01T17:46:07.928Z,19.25
2022-12-01T17:48:40.157Z,20.08
2022-12-01T17:51:08.897Z,21.60
2022-12-01T17:53:36.955Z,25.25
2022-12-01T17:56:08.167Z,21.70
2022-12-01T17:58:35.729Z,35.80
2022-12-01T18:01:03.003Z,34.85
2022-12-01T18:03:30.599Z,20.33
2022-12-01T18:06:01.764Z,19.02
2022-12-01T18:08:30.369Z,22.30
2022-12-01T18:11:02.108Z,23.08
2022-12-01T18:13:29.640Z,23.83
2022-12-01T18:15:56.335Z,21.67
2022-12-01T18:18:23.046Z,21.15
2022-12-01T18:20:49.646Z,20.15
2022-12-01T18:23:16.268Z,19.77
2022-12-01T18:25:42.844Z,20.52
2022-12-01T18:28:11.122Z,21.25
2022-12-01T18:30:38.905Z,21.17
2022-12-01T18:33:10.904Z,21.92
2022-12-01T18:35:43.279Z,23.80
2022-12-01T18:38:10.224Z,24.45
2022-12-01T18:40:37.990Z,24.00
2022-12-01T18:43:05.233Z,20.75
2022-12-01T18:45:32.062Z,32.95
2022-12-01T18:47:58.713Z,25.00
2022-12-01T18:50:25.330Z,22.27
2022-12-01T18:52:52.004Z,21.85
2022-12-01T18:55:18.674Z,20.35
2022-12-01T18:57:45.396Z,22.15
2022-12-01T19:00:12.701Z,21.30
2022-12-01T19:02:39.308Z,25.55
2022-12-01T19:05:06.418Z,22.33
2022-12-01T19:07:33.066Z,22.95
2022-12-01T19:09:59.784Z,21.38
2022-12-01T19:12:26.443Z,20.83
2022-12-01T19:14:54.212Z,20.33
2022-12-01T19:17:21.467Z,20.33
2022-12-01T19:19:48.085Z,21.58
2022-12-01T19:22:15.853Z,21.08
2022-12-01T19:24:47.139Z,19.65
2022-12-01T19:27:17.097Z,21.38
2022-12-01T19:29:43.792Z,20.20
2022-12-01T19:32:10.993Z,21.30
2022-12-01T19:34:37.771Z,22.43
2022-12-01T19:37:05.267Z,20.98
2022-12-01T19:39:32.698Z,20.65
2022-12-01T19:41:59.297Z,22.27
2022-12-01T19:44:25.965Z,23.73
2022-12-01T19:46:53.327Z,21.25
2022-12-01T19:49:19.982Z,24.33
2022-12-01T19:51:47.004Z,27.10
2022-12-01T19:54:20.078Z,23.93
2022-12-01T19:56:46.792Z,25.52
2022-12-01T19:59:14.877Z,27.17
2022-12-01T20:01:41.691Z,23.58
2022-12-01T20:04:08.977Z,24.33
2022-12-01T20:06:37.167Z,26.60
2022-12-01T20:09:06.657Z,24.20
2022-12-01T20:11:35.567Z,25.73
2022-12-01T20:16:30.782Z,22.27
2022-12-01T20:19:00.772Z,25.00
2022-12-01T20:21:30.721Z,25.33
2022-12-01T20:23:59.732Z,23.27
2022-12-01T20:26:30.724Z,24.05
2022-12-01T20:29:04.268Z,25.10
2022-12-01T20:31:33.626Z,24.45
2022-12-01T20:34:04.852Z,30.25
2022-12-01T20:36:32.560Z,26.92
2022-12-01T20:38:59.403Z,22.92
2022-12-01T20:41:26.304Z,24.75
2022-12-01T20:43:53.079Z,23.33
2022-12-01T20:46:19.989Z,21.83
2022-12-01T20:48:46.704Z,23.35
2022-12-01T20:51:14.785Z,22.15
2022-12-01T20:53:54.510Z,22.73
2022-12-01T20:56:28.665Z,23.63
2022-12-01T20:58:55.422Z,22.52
2022-12-01T21:01:25.076Z,21.67
2022-12-01T21:03:52.773Z,23.05
2022-12-01T21:06:20.893Z,23.08
2022-12-01T21:08:49.616Z,22.65
2022-12-01T21:11:41.490Z,22.83
2022-12-01T21:14:17.956Z,23.63
2022-12-01T21:16:48.327Z,34.85
2022-12-01T21:19:22.941Z,27.00
2022-12-01T21:21:49.623Z,24.45
2022-12-01T21:24:19.590Z,23.98
2022-12-01T21:26:58.705Z,22.17
2022-12-01T21:29:28.366Z,21.27
2022-12-01T21:32:10.022Z,22.27
2022-12-01T21:34:36.727Z,21.88
2022-12-01T21:37:10.733Z,21.60
2022-12-01T21:39:38.521Z,23.10
2022-12-01T21:42:18.309Z,23.60
2022-12-01T21:44:45.579Z,23.70
2022-12-01T21:47:23.746Z,22.65
2022-12-01T21:49:53.108Z,21.88
2022-12-01T21:52:22.723Z,23.88
2022-12-01T21:54:50.159Z,23.58
2022-12-01T21:57:43.105Z,24.10
2022-12-01T22:00:28.214Z,22.02
2022-12-01T22:03:24.760Z,22.50
2022-12-01T22:06:27.724Z,24.90
2022-12-01T22:08:46.471Z,24.13
2022-12-01T22:11:21.996Z,23.38
2022-12-01T22:13:59.262Z,22.10
2022-12-01T22:16:30.511Z,22.63
2022-12-01T22:18:59.425Z,23.83
2022-12-01T22:21:31.299Z,26.35
2022-12-01T22:24:09.802Z,23.23
2022-12-01T22:26:43.251Z,22.50
2022-12-01T22:29:28.407Z,23.25
2022-12-01T22:32:01.216Z,23.45
2022-12-01T22:34:28.036Z,22.08
2022-12-01T22:36:55.033Z,22.13
2022-12-01T22:39:34.109Z,21.73
2022-12-01T22:42:07.783Z,22.23
2022-12-01T22:44:34.443Z,21.17
2022-12-01T22:47:03.105Z,22.40
2022-12-01T22:49:30.844Z,21.35
2022-12-01T22:52:05.697Z,22.35
2022-12-01T22:54:43.574Z,21.70
2022-12-01T22:57:19.022Z,22.92
2022-12-01T22:59:47.755Z,23.05
2022-12-01T23:02:29.469Z,28.80
2022-12-01T23:05:01.381Z,31.10
2022-12-01T23:07:31.894Z,29.52
2022-12-01T23:10:18.708Z,25.70
2022-12-01T23:12:47.704Z,29.23
2022-12-01T23:15:47.877Z,27.02
2022-12-01T23:18:16.063Z,28.70
2022-12-01T23:20:46.117Z,25.98
2022-12-01T23:23:16.733Z,21.85
2022-12-01T23:25:44.682Z,24.67
2022-12-01T23:28:13.004Z,35.33
2022-12-01T23:30:42.180Z,27.15
2022-12-01T23:33:08.772Z,28.92
2022-12-01T23:35:41.359Z,31.42
2022-12-01T23:38:18.057Z,35.38
2022-12-01T23:40:45.347Z,36.95
2022-12-01T23:43:18.775Z,31.10
2022-12-01T23:45:45.699Z,31.35
2022-12-01T23:48:20.664Z,25.20
2022-12-01T23:50:50.122Z,21.90
2022-12-01T23:53:29.154Z,20.60
2022-12-01T23:55:59.060Z,20.10
2022-12-01T23:58:26.408Z,20.58
